Time;durP1;ratioP1;P1;durP2;ratioP2;P2;SDS_P1;SDS_P2;PMS_P1;PMS_P2;Temp;Humidity;BMP_temperature;BMP_pressure;BME280_temperature;BME280_humidity;BME280_pressure;Samples;Min_cycle;Max_cycle;Signal;HPM_P1;HPM_P2
2021/10/17 00:00:04;;;;;;;4.97;1.58;;;10.10;99.90;;;;;;5003195;28;20388;-67
2021/10/17 00:02:30;;;;;;;2.70;1.25;;;10.10;99.90;;;;;;5001683;28;20049;-67
2021/10/17 00:04:56;;;;;;;3.90;1.10;;;10.00;99.90;;;;;;5001967;28;20038;-67
2021/10/17 00:07:21;;;;;;;5.38;1.52;;;10.10;99.90;;;;;;4990500;28;20165;-67
2021/10/17 00:09:47;;;;;;;5.68;1.70;;;10.10;99.90;;;;;;5001438;28;20371;-67
2021/10/17 00:12:13;;;;;;;4.93;1.55;;;10.00;99.90;;;;;;5001740;28;20181;-67
2021/10/17 00:14:39;;;;;;;7.78;1.98;;;10.00;99.90;;;;;;5001652;28;20036;-66
2021/10/17 00:17:07;;;;;;;5.50;1.40;;;10.00;99.90;;;;;;5002446;28;20038;-67
2021/10/17 00:19:33;;;;;;;3.95;1.10;;;9.90;99.90;;;;;;5001912;28;20034;-66
2021/10/17 00:21:59;;;;;;;4.93;1.50;;;9.90;99.90;;;;;;4992709;28;20022;-67
2021/10/17 00:24:25;;;;;;;8.93;1.30;;;9.90;99.90;;;;;;5005088;28;20049;-67
2021/10/17 00:26:50;;;;;;;4.25;1.30;;;9.90;99.90;;;;;;5005819;28;20127;-66
2021/10/17 00:29:16;;;;;;;4.35;1.60;;;9.90;99.90;;;;;;5005341;28;20225;-67
2021/10/17 00:31:42;;;;;;;7.72;1.55;;;9.90;99.90;;;;;;5005598;28;20037;-67
2021/10/17 00:34:08;;;;;;;3.85;1.60;;;9.90;99.90;;;;;;5003961;28;20275;-67
2021/10/17 00:36:34;;;;;;;6.85;1.38;;;9.80;99.90;;;;;;5005382;28;20273;-67
2021/10/17 00:39:00;;;;;;;5.05;2.05;;;9.80;99.90;;;;;;5005193;28;20032;-67
2021/10/17 00:41:30;;;;;;;6.97;1.52;;;9.70;99.90;;;;;;5003167;28;20026;-66
2021/10/17 00:43:57;;;;;;;3.97;1.30;;;9.70;99.90;;;;;;5005154;28;20033;-67
2021/10/17 00:46:23;;;;;;;4.57;1.50;;;9.70;99.90;;;;;;5005686;28;20349;-67
2021/10/17 00:48:49;;;;;;;7.55;1.30;;;9.60;99.90;;;;;;5005179;28;20218;-67
2021/10/17 00:51:15;;;;;;;5.85;1.75;;;9.50;99.90;;;;;;5005221;28;20036;-66
2021/10/17 00:53:42;;;;;;;3.28;1.20;;;9.40;99.90;;;;;;5005269;28;20283;-67
2021/10/17 00:56:09;;;;;;;4.03;1.23;;;9.40;99.90;;;;;;5005114;28;20033;-67
2021/10/17 00:58:35;;;;;;;6.25;1.40;;;9.30;99.90;;;;;;5003816;28;20346;-67
2021/10/17 01:01:02;;;;;;;9.13;1.67;;;9.30;99.90;;;;;;5011798;28;20030;-67
2021/10/17 01:03:28;;;;;;;4.65;1.75;;;9.30;99.90;;;;;;5003892;28;20052;-66
2021/10/17 01:05:55;;;;;;;2.58;1.38;;;9.20;99.90;;;;;;5004655;28;20065;-67
2021/10/17 01:08:21;;;;;;;9.48;1.95;;;9.20;99.90;;;;;;5003654;28;20405;-66
2021/10/17 01:10:47;;;;;;;4.55;1.40;;;9.20;99.90;;;;;;5003882;28;20049;-66
2021/10/17 01:13:17;;;;;;;9.30;1.77;;;9.20;99.90;;;;;;5004920;28;20030;-66
2021/10/17 01:15:44;;;;;;;5.53;1.33;;;9.20;99.90;;;;;;5004732;28;20034;-66
2021/10/17 01:18:10;;;;;;;5.57;1.58;;;9.20;99.90;;;;;;4995435;28;20249;-66
2021/10/17 01:20:36;;;;;;;6.13;1.10;;;9.20;99.90;;;;;;4994558;28;20033;-66
2021/10/17 01:23:02;;;;;;;1.75;1.00;;;9.20;99.90;;;;;;5004942;28;20244;-66
2021/10/17 01:25:28;;;;;;;6.03;1.40;;;9.20;99.90;;;;;;5005103;28;20034;-67
2021/10/17 01:27:53;;;;;;;3.42;1.27;;;9.20;99.90;;;;;;5003328;28;20543;-66
2021/10/17 01:30:19;;;;;;;7.15;1.48;;;9.20;99.90;;;;;;5003896;28;20038;-66
2021/10/17 01:32:45;;;;;;;3.50;1.48;;;9.10;99.90;;;;;;5003047;28;20021;-67
2021/10/17 01:35:11;;;;;;;4.20;1.45;;;9.20;99.90;;;;;;5003493;28;20029;-67
2021/10/17 01:37:37;;;;;;;2.45;1.10;;;9.20;99.90;;;;;;5004021;28;20033;-66
2021/10/17 01:40:04;;;;;;;8.02;1.48;;;9.20;99.90;;;;;;5004521;28;20026;-66
2021/10/17 01:42:30;;;;;;;7.70;1.50;;;9.20;99.90;;;;;;5004077;28;20375;-67
2021/10/17 01:44:57;;;;;;;6.55;1.50;;;9.20;99.90;;;;;;5003808;28;20042;-66
2021/10/17 01:47:24;;;;;;;4.55;1.42;;;9.30;99.90;;;;;;5005970;28;20057;-66
2021/10/17 01:49:50;;;;;;;4.28;1.48;;;9.30;99.90;;;;;;5005120;28;20080;-66
2021/10/17 01:52:16;;;;;;;4.45;1.60;;;9.30;99.90;;;;;;5003423;28;20038;-67
2021/10/17 01:54:42;;;;;;;3.60;1.40;;;9.30;99.90;;;;;;5004013;28;20025;-67
2021/10/17 01:57:08;;;;;;;3.60;1.52;;;9.20;99.90;;;;;;5003435;28;20336;-67
2021/10/17 01:59:34;;;;;;;5.82;1.80;;;9.20;99.90;;;;;;5003680;28;20045;-67
2021/10/17 02:02:00;;;;;;;6.80;1.48;;;9.20;99.90;;;;;;5003499;28;20042;-66
2021/10/17 02:04:25;;;;;;;4.78;1.60;;;9.20;99.90;;;;;;5004170;28;20296;-66
2021/10/17 02:06:51;;;;;;;3.17;1.33;;;9.20;99.90;;;;;;5002833;28;20026;-66
2021/10/17 02:09:17;;;;;;;5.85;1.65;;;9.10;99.90;;;;;;5004618;28;20030;-66
2021/10/17 02:11:43;;;;;;;4.80;1.50;;;9.00;99.90;;;;;;5003085;28;20032;-66
2021/10/17 02:14:09;;;;;;;7.32;1.92;;;9.00;99.90;;;;;;5003736;28;20030;-66
2021/10/17 02:16:35;;;;;;;2.78;1.15;;;9.00;99.90;;;;;;5003811;28;20029;-67
2021/10/17 02:19:00;;;;;;;3.25;1.67;;;8.90;99.90;;;;;;5003183;28;20030;-67
2021/10/17 02:21:26;;;;;;;4.25;1.38;;;8.80;99.90;;;;;;5003446;28;20026;-67
2021/10/17 02:23:52;;;;;;;6.90;1.42;;;8.80;99.90;;;;;;5002944;28;20228;-67
2021/10/17 02:26:18;;;;;;;3.30;1.25;;;8.70;99.90;;;;;;5003550;28;20103;-67
2021/10/17 02:28:44;;;;;;;7.50;1.40;;;8.80;99.90;;;;;;5003328;28;20096;-66
2021/10/17 02:31:09;;;;;;;5.03;1.40;;;9.00;99.90;;;;;;5003252;28;20038;-67
2021/10/17 02:33:35;;;;;;;4.55;1.60;;;8.90;99.90;;;;;;5003202;28;20359;-66
2021/10/17 02:36:02;;;;;;;6.97;1.30;;;9.00;99.90;;;;;;5003463;28;20093;-66
2021/10/17 02:38:28;;;;;;;5.30;1.70;;;8.90;99.90;;;;;;5003643;28;20034;-66
2021/10/17 02:40:54;;;;;;;4.25;2.00;;;8.90;99.90;;;;;;5003595;28;20030;-67
2021/10/17 02:43:20;;;;;;;4.70;1.45;;;8.90;99.90;;;;;;5003905;28;20052;-66
2021/10/17 02:45:45;;;;;;;6.95;1.42;;;9.00;99.90;;;;;;5002734;28;20056;-67
2021/10/17 02:48:11;;;;;;;7.32;1.50;;;9.00;99.90;;;;;;5003311;28;20033;-66
2021/10/17 02:50:37;;;;;;;6.10;1.20;;;9.00;99.90;;;;;;5007842;28;20065;-67
2021/10/17 02:53:03;;;;;;;5.38;1.20;;;9.00;99.90;;;;;;5002888;28;20359;-67
2021/10/17 02:55:29;;;;;;;5.38;1.00;;;9.10;99.90;;;;;;5003285;28;20025;-66
2021/10/17 02:57:54;;;;;;;3.22;1.00;;;9.10;99.90;;;;;;4990829;28;20320;-67
2021/10/17 03:00:21;;;;;;;5.85;1.40;;;9.10;99.90;;;;;;5003819;28;20101;-67
2021/10/17 03:02:47;;;;;;;1.48;0.73;;;9.20;99.90;;;;;;5002854;28;20030;-66
2021/10/17 03:05:12;;;;;;;3.33;1.20;;;9.20;99.90;;;;;;5002362;28;20053;-67
2021/10/17 03:07:38;;;;;;;2.90;0.93;;;9.30;99.90;;;;;;5002330;28;20034;-67
2021/10/17 03:10:05;;;;;;;6.85;1.33;;;9.30;99.90;;;;;;5003427;28;20515;-67
2021/10/17 03:12:31;;;;;;;3.55;1.10;;;9.40;99.90;;;;;;5001611;28;20053;-67
2021/10/17 03:14:56;;;;;;;5.00;0.75;;;9.40;99.90;;;;;;5002822;28;20026;-67
2021/10/17 03:17:22;;;;;;;7.97;1.10;;;9.40;99.90;;;;;;4989606;28;20030;-67
2021/10/17 03:19:49;;;;;;;7.07;1.25;;;9.50;99.90;;;;;;5002659;28;20326;-67
2021/10/17 03:22:15;;;;;;;5.82;1.38;;;9.60;99.90;;;;;;5002176;28;20252;-67
2021/10/17 03:24:41;;;;;;;5.15;0.95;;;9.60;99.90;;;;;;5002414;28;20042;-67
2021/10/17 03:27:07;;;;;;;5.60;1.48;;;9.60;99.90;;;;;;5003200;28;20036;-67
2021/10/17 03:29:32;;;;;;;5.85;0.88;;;9.70;99.90;;;;;;5002607;28;20117;-67
2021/10/17 03:31:58;;;;;;;2.10;1.05;;;9.70;99.90;;;;;;5001157;28;20212;-67
2021/10/17 03:34:24;;;;;;;2.10;1.25;;;9.60;99.90;;;;;;5002279;28;20072;-67
2021/10/17 03:36:50;;;;;;;4.43;1.88;;;9.70;99.90;;;;;;5001837;28;20123;-66
2021/10/17 03:39:16;;;;;;;6.88;1.10;;;9.70;99.90;;;;;;5002118;28;20064;-67
2021/10/17 03:41:41;;;;;;;6.45;1.20;;;9.70;99.90;;;;;;5002719;28;20041;-66
2021/10/17 03:44:07;;;;;;;3.40;0.80;;;9.70;99.90;;;;;;5002698;28;20046;-67
2021/10/17 03:46:33;;;;;;;6.03;0.80;;;9.70;99.90;;;;;;4989761;28;20029;-67
2021/10/17 03:48:59;;;;;;;2.63;0.90;;;9.70;99.90;;;;;;5002160;28;20215;-67
2021/10/17 03:51:25;;;;;;;4.05;0.80;;;9.80;99.90;;;;;;5002620;28;20042;-67
2021/10/17 03:53:50;;;;;;;7.30;1.15;;;9.70;99.90;;;;;;5002613;28;20452;-67
2021/10/17 03:56:16;;;;;;;7.80;1.40;;;9.70;99.90;;;;;;5002557;28;20034;-67
2021/10/17 03:58:42;;;;;;;4.75;1.10;;;9.70;99.90;;;;;;5005598;28;20053;-67
2021/10/17 04:01:09;;;;;;;4.63;1.02;;;9.70;99.90;;;;;;5005746;28;20058;-67
2021/10/17 04:03:36;;;;;;;3.08;0.95;;;9.70;99.90;;;;;;5006020;28;20033;-66
2021/10/17 04:06:02;;;;;;;2.13;0.93;;;9.70;99.90;;;;;;5005319;28;20511;-67
2021/10/17 04:08:28;;;;;;;6.85;1.20;;;9.70;99.90;;;;;;5005524;28;20221;-67
2021/10/17 04:10:53;;;;;;;3.80;1.00;;;9.70;99.90;;;;;;5007247;28;20494;-67
2021/10/17 04:13:19;;;;;;;4.47;0.82;;;9.60;99.90;;;;;;5007138;28;20390;-67
2021/10/17 04:15:45;;;;;;;5.82;1.88;;;9.60;99.90;;;;;;5006544;28;20025;-67
2021/10/17 04:18:11;;;;;;;5.40;1.90;;;9.60;99.90;;;;;;5006023;28;20037;-67
2021/10/17 04:20:37;;;;;;;2.20;0.70;;;9.60;99.90;;;;;;5006485;28;20031;-67
2021/10/17 04:23:03;;;;;;;2.00;0.73;;;9.60;99.90;;;;;;4992945;28;20358;-67
2021/10/17 04:25:29;;;;;;;3.33;1.00;;;9.50;99.90;;;;;;5005811;28;20306;-67
2021/10/17 04:27:55;;;;;;;1.38;0.85;;;9.50;99.90;;;;;;5005861;28;20049;-67
2021/10/17 04:30:21;;;;;;;4.07;1.30;;;9.50;99.90;;;;;;5005371;28;20228;-67
2021/10/17 04:32:47;;;;;;;4.13;0.95;;;9.50;99.90;;;;;;5006142;28;20258;-67
2021/10/17 04:35:13;;;;;;;3.60;1.23;;;9.40;99.90;;;;;;5005551;28;20524;-67
2021/10/17 04:37:39;;;;;;;2.95;0.93;;;9.40;99.90;;;;;;5005020;28;20038;-67
2021/10/17 04:40:07;;;;;;;3.03;0.88;;;9.40;99.90;;;;;;5006136;28;20050;-67
2021/10/17 04:42:33;;;;;;;4.70;1.23;;;9.30;99.90;;;;;;5003248;28;20284;-67
2021/10/17 04:44:59;;;;;;;7.53;2.20;;;9.30;99.90;;;;;;5001346;28;20100;-67
2021/10/17 04:47:25;;;;;;;3.70;1.20;;;9.30;99.90;;;;;;5003263;28;20089;-67
2021/10/17 04:49:51;;;;;;;3.40;1.38;;;9.20;99.90;;;;;;5004722;28;20030;-66
2021/10/17 04:52:17;;;;;;;2.83;1.52;;;9.30;99.90;;;;;;5005302;28;20097;-67
2021/10/17 04:54:43;;;;;;;5.20;1.00;;;9.30;99.90;;;;;;5005178;28;20030;-67
2021/10/17 04:57:10;;;;;;;7.13;1.10;;;9.30;99.90;;;;;;5005265;28;20381;-67
2021/10/17 04:59:36;;;;;;;4.75;1.38;;;9.30;99.90;;;;;;5004994;28;20099;-66
2021/10/17 05:02:02;;;;;;;2.72;1.10;;;9.30;99.90;;;;;;5006007;28;20121;-66
2021/10/17 05:04:28;;;;;;;3.20;0.75;;;9.40;99.90;;;;;;5006017;28;20135;-67
2021/10/17 05:06:54;;;;;;;3.50;0.75;;;9.30;99.90;;;;;;5005057;28;20299;-66
2021/10/17 05:09:19;;;;;;;1.75;0.80;;;9.30;99.90;;;;;;5003930;28;20044;-67
2021/10/17 05:11:45;;;;;;;3.42;1.58;;;9.10;99.90;;;;;;5004843;28;20034;-66
2021/10/17 05:14:11;;;;;;;5.57;2.42;;;9.00;99.90;;;;;;5004998;28;20331;-67
2021/10/17 05:16:37;;;;;;;3.28;1.30;;;9.00;99.90;;;;;;5004759;28;20028;-66
2021/10/17 05:19:03;;;;;;;2.38;1.35;;;8.90;99.90;;;;;;5005612;28;20620;-67
2021/10/17 05:21:29;;;;;;;2.45;1.20;;;8.90;99.90;;;;;;5003809;28;20064;-67
2021/10/17 05:23:57;;;;;;;2.40;1.10;;;9.00;99.90;;;;;;5005042;28;20363;-66
2021/10/17 05:26:23;;;;;;;7.03;0.98;;;8.90;99.90;;;;;;4992765;28;20390;-67
2021/10/17 05:28:49;;;;;;;3.33;1.15;;;8.90;99.90;;;;;;5004960;28;20393;-67
2021/10/17 05:31:15;;;;;;;4.25;0.95;;;8.90;99.90;;;;;;5005452;28;20036;-67
2021/10/17 05:33:41;;;;;;;3.22;0.93;;;8.90;99.90;;;;;;5004968;28;20280;-66
2021/10/17 05:36:07;;;;;;;5.47;1.25;;;8.90;99.90;;;;;;5005048;28;20026;-66
2021/10/17 05:38:33;;;;;;;4.15;1.33;;;8.90;99.90;;;;;;5004111;28;20069;-67
2021/10/17 05:40:59;;;;;;;2.80;1.52;;;8.90;99.90;;;;;;5004187;28;20371;-66
2021/10/17 05:43:25;;;;;;;4.00;1.20;;;8.90;99.90;;;;;;5004929;28;20026;-66
2021/10/17 05:45:50;;;;;;;2.70;1.13;;;8.90;99.90;;;;;;5004706;28;20066;-67
2021/10/17 05:48:16;;;;;;;4.75;1.10;;;8.90;99.90;;;;;;5003927;28;20353;-66
2021/10/17 05:50:42;;;;;;;5.90;1.30;;;8.90;99.90;;;;;;5004929;28;20271;-66
2021/10/17 05:53:08;;;;;;;6.20;1.40;;;8.90;99.90;;;;;;5004343;28;20077;-66
2021/10/17 05:55:34;;;;;;;2.03;1.17;;;8.90;99.90;;;;;;5003942;28;20046;-66
2021/10/17 05:58:00;;;;;;;3.80;1.10;;;8.90;99.90;;;;;;5004507;28;20030;-67
2021/10/17 06:00:26;;;;;;;2.00;0.90;;;8.90;99.90;;;;;;5004109;28;20029;-66
2021/10/17 06:02:51;;;;;;;2.92;1.45;;;8.90;99.90;;;;;;4992337;28;20033;-66
2021/10/17 06:05:17;;;;;;;1.40;1.10;;;8.90;99.90;;;;;;5004102;28;20033;-66
2021/10/17 06:07:43;;;;;;;3.22;1.15;;;8.90;99.90;;;;;;5003877;28;20026;-66
2021/10/17 06:10:12;;;;;;;3.05;1.20;;;8.90;99.90;;;;;;5002887;28;20069;-66
2021/10/17 06:12:40;;;;;;;2.83;1.20;;;8.90;99.90;;;;;;5004330;28;20033;-66
2021/10/17 06:15:07;;;;;;;2.13;1.15;;;8.80;99.90;;;;;;5003709;28;20455;-66
2021/10/17 06:17:33;;;;;;;4.45;1.30;;;8.80;99.90;;;;;;5002428;28;20041;-66
2021/10/17 06:19:59;;;;;;;4.43;0.98;;;8.80;99.90;;;;;;5002733;28;20050;-66
2021/10/17 06:22:25;;;;;;;3.67;1.10;;;8.80;99.90;;;;;;5002711;28;20055;-66
2021/10/17 06:24:51;;;;;;;5.20;1.40;;;8.80;99.90;;;;;;4993139;28;20038;-67
2021/10/17 06:27:17;;;;;;;4.20;1.40;;;8.80;99.90;;;;;;5002656;28;20522;-66
2021/10/17 06:29:43;;;;;;;4.35;1.10;;;8.80;99.90;;;;;;5003402;28;20439;-66
2021/10/17 06:32:09;;;;;;;2.55;1.00;;;8.80;99.90;;;;;;5003270;28;20345;-66
2021/10/17 06:34:35;;;;;;;4.68;1.63;;;8.80;99.90;;;;;;5003775;28;20693;-66
2021/10/17 06:37:00;;;;;;;4.55;1.80;;;8.80;99.90;;;;;;5003913;28;20022;-66
2021/10/17 06:39:26;;;;;;;2.95;1.50;;;8.90;99.90;;;;;;5002585;28;20025;-67
2021/10/17 06:41:52;;;;;;;4.53;1.40;;;8.90;99.90;;;;;;5003957;28;20026;-66
2021/10/17 06:44:19;;;;;;;2.72;1.20;;;8.90;99.90;;;;;;5003125;28;20480;-66
2021/10/17 06:46:46;;;;;;;4.97;1.60;;;8.90;99.90;;;;;;5003314;28;20022;-67
2021/10/17 06:49:15;;;;;;;4.60;1.75;;;9.00;99.90;;;;;;5003848;28;20273;-66
2021/10/17 06:51:41;;;;;;;3.05;1.65;;;9.10;99.90;;;;;;5003605;28;20276;-66
2021/10/17 06:54:07;;;;;;;3.63;1.90;;;9.10;99.90;;;;;;5002316;28;20019;-66
2021/10/17 06:56:33;;;;;;;6.97;2.10;;;9.00;99.90;;;;;;5003030;28;20221;-66
2021/10/17 06:58:59;;;;;;;4.35;1.88;;;9.00;99.90;;;;;;5003611;28;20037;-67
2021/10/17 07:01:25;;;;;;;6.63;2.42;;;9.00;99.90;;;;;;5002471;28;20276;-66
2021/10/17 07:03:50;;;;;;;7.40;2.58;;;9.10;99.90;;;;;;5002919;28;20101;-66
2021/10/17 07:06:16;;;;;;;5.03;2.70;;;9.10;99.90;;;;;;5003368;28;20038;-66
2021/10/17 07:08:42;;;;;;;8.27;3.03;;;9.10;99.90;;;;;;5002955;28;20292;-66
2021/10/17 07:11:09;;;;;;;14.38;4.50;;;9.20;99.90;;;;;;5002776;28;20159;-66
2021/10/17 07:13:35;;;;;;;5.97;3.13;;;9.20;99.90;;;;;;5002583;28;20022;-66
2021/10/17 07:16:00;;;;;;;6.05;3.17;;;9.40;99.90;;;;;;5003411;28;20032;-66
2021/10/17 07:18:26;;;;;;;8.23;3.80;;;9.30;99.90;;;;;;5001633;28;20443;-66
2021/10/17 07:20:53;;;;;;;11.75;4.72;;;9.30;99.90;;;;;;5002798;28;20061;-67
2021/10/17 07:23:19;;;;;;;12.18;5.13;;;9.40;99.90;;;;;;5003553;28;20285;-67
2021/10/17 07:25:45;;;;;;;11.60;4.93;;;9.40;99.90;;;;;;5002908;28;20252;-66
2021/10/17 07:28:11;;;;;;;8.68;4.70;;;9.50;99.90;;;;;;5002905;28;20058;-66
2021/10/17 07:30:38;;;;;;;8.80;4.45;;;9.50;99.90;;;;;;5003551;28;20044;-66
2021/10/17 07:33:04;;;;;;;11.50;4.82;;;9.50;99.90;;;;;;5003895;28;20105;-67
2021/10/17 07:35:30;;;;;;;10.35;4.38;;;9.50;99.90;;;;;;5006037;28;20035;-67
2021/10/17 07:37:57;;;;;;;9.60;3.65;;;9.60;99.90;;;;;;5006713;28;20124;-67
2021/10/17 07:40:24;;;;;;;7.18;3.42;;;9.70;99.90;;;;;;5006626;28;20116;-66
2021/10/17 07:42:50;;;;;;;6.45;3.08;;;9.80;99.90;;;;;;5005878;28;20033;-66
2021/10/17 07:45:16;;;;;;;4.47;2.28;;;9.70;99.90;;;;;;5005309;28;20356;-67
2021/10/17 07:47:42;;;;;;;7.60;2.80;;;9.80;99.90;;;;;;4977219;28;20060;-67
2021/10/17 07:50:09;;;;;;;5.15;1.88;;;9.90;99.90;;;;;;5007539;28;20033;-67
2021/10/17 07:52:36;;;;;;;3.20;1.52;;;9.90;99.90;;;;;;5006840;28;20037;-66
2021/10/17 07:55:06;;;;;;;5.50;1.80;;;10.00;99.90;;;;;;5007267;28;20034;-66
2021/10/17 07:57:52;;;;;;;8.00;1.77;;;10.10;99.90;;;;;;5006307;28;20343;-66
2021/10/17 08:00:23;;;;;;;6.65;1.58;;;10.00;99.90;;;;;;5007862;28;20033;-66
2021/10/17 08:02:49;;;;;;;8.70;2.10;;;9.90;99.90;;;;;;5007421;28;20283;-66
2021/10/17 08:05:16;;;;;;;4.10;1.55;;;9.80;99.90;;;;;;5006469;28;20044;-66
2021/10/17 08:07:42;;;;;;;5.75;1.70;;;10.00;99.90;;;;;;5006648;28;20117;-66
2021/10/17 08:10:09;;;;;;;5.82;1.92;;;10.10;99.90;;;;;;5006263;28;20248;-66
2021/10/17 08:12:36;;;;;;;4.70;1.80;;;10.10;99.90;;;;;;5006448;28;20036;-66
2021/10/17 08:15:03;;;;;;;6.40;1.90;;;10.20;99.90;;;;;;5006385;28;20032;-67
2021/10/17 08:17:28;;;;;;;4.72;1.45;;;10.30;99.90;;;;;;4995922;28;20034;-66
2021/10/17 08:19:54;;;;;;;3.53;1.90;;;10.40;99.90;;;;;;5005963;28;20344;-66
2021/10/17 08:22:20;;;;;;;3.10;1.33;;;10.60;99.90;;;;;;5006562;28;20072;-66
2021/10/17 08:24:48;;;;;;;5.55;1.50;;;10.70;99.90;;;;;;5005182;28;20101;-66
2021/10/17 08:27:14;;;;;;;3.75;1.67;;;10.90;99.90;;;;;;5005240;28;20328;-67
2021/10/17 08:29:39;;;;;;;4.80;1.77;;;11.00;99.90;;;;;;4994078;28;20117;-66
2021/10/17 08:32:06;;;;;;;2.80;1.35;;;11.20;99.90;;;;;;5005448;28;20104;-67
2021/10/17 08:34:31;;;;;;;3.53;1.42;;;11.40;99.90;;;;;;5006597;28;20029;-67
2021/10/17 08:36:57;;;;;;;3.10;1.20;;;11.70;99.90;;;;;;5005112;28;20032;-67
2021/10/17 08:39:23;;;;;;;6.18;1.92;;;12.00;99.90;;;;;;5004542;28;20033;-67
2021/10/17 08:41:49;;;;;;;8.18;2.08;;;12.20;99.90;;;;;;5005333;28;20032;-67
2021/10/17 08:44:17;;;;;;;5.43;1.52;;;12.40;99.90;;;;;;5005227;28;20041;-67
2021/10/17 08:46:44;;;;;;;3.47;1.35;;;12.70;99.90;;;;;;5005483;28;20061;-67
2021/10/17 08:49:11;;;;;;;5.07;1.40;;;13.00;99.90;;;;;;5005676;28;20036;-67
2021/10/17 08:51:38;;;;;;;5.03;1.48;;;13.50;99.90;;;;;;5005941;28;20040;-67
2021/10/17 08:54:05;;;;;;;10.13;1.42;;;13.80;99.90;;;;;;5004995;28;20265;-67
2021/10/17 08:56:31;;;;;;;6.35;1.85;;;14.10;99.90;;;;;;4994527;28;20391;-67
2021/10/17 08:58:57;;;;;;;5.53;1.60;;;14.30;99.90;;;;;;5004701;28;20193;-67
2021/10/17 09:01:23;;;;;;;4.13;1.27;;;14.60;99.90;;;;;;5004949;28;20033;-67
2021/10/17 09:04:01;;;;;;;2.90;0.88;;;14.80;99.90;;;;;;5005502;28;20380;-67
2021/10/17 09:06:32;;;;;;;5.47;1.45;;;14.80;99.90;;;;;;5005620;28;20081;-67
2021/10/17 09:09:13;;;;;;;3.53;1.35;;;14.80;99.90;;;;;;5004719;28;20055;-67
2021/10/17 09:11:44;;;;;;;3.72;1.55;;;15.10;99.90;;;;;;5005470;28;20125;-67
2021/10/17 09:14:24;;;;;;;7.18;1.45;;;15.40;99.90;;;;;;5005197;28;20045;-66
2021/10/17 09:16:53;;;;;;;4.25;1.20;;;15.60;99.90;;;;;;5004051;28;20320;-67
2021/10/17 09:19:27;;;;;;;3.70;0.93;;;15.90;99.90;;;;;;5004973;28;20104;-67
2021/10/17 09:21:57;;;;;;;3.88;1.55;;;15.80;99.90;;;;;;5004397;28;20367;-67
2021/10/17 09:24:25;;;;;;;3.28;0.90;;;15.70;99.90;;;;;;5004276;28;20064;-67
2021/10/17 09:27:05;;;;;;;7.75;1.45;;;15.60;99.90;;;;;;5004049;28;20308;-67
2021/10/17 09:29:32;;;;;;;5.93;1.30;;;15.40;99.90;;;;;;4985717;28;20436;-67
2021/10/17 09:31:58;;;;;;;2.35;1.00;;;15.30;99.90;;;;;;5001559;28;20221;-67
2021/10/17 09:34:31;;;;;;;4.65;1.02;;;15.10;99.90;;;;;;4990183;28;20033;-67
2021/10/17 09:37:08;;;;;;;3.45;1.33;;;14.80;99.90;;;;;;4988042;28;20133;-67
2021/10/17 09:39:37;;;;;;;7.38;1.35;;;14.60;99.90;;;;;;5002826;28;20251;-67
2021/10/17 09:42:04;;;;;;;4.43;1.30;;;14.50;99.90;;;;;;5004279;28;20324;-67
2021/10/17 09:44:41;;;;;;;2.88;1.35;;;14.30;99.90;;;;;;5002187;28;20042;-67
2021/10/17 09:47:08;;;;;;;3.63;1.38;;;14.10;99.90;;;;;;5003239;28;20084;-67
2021/10/17 09:49:34;;;;;;;4.75;1.30;;;13.90;99.90;;;;;;5004250;28;20410;-67
2021/10/17 09:52:13;;;;;;;3.55;1.45;;;13.80;99.90;;;;;;5003620;28;20150;-67
2021/10/17 09:54:44;;;;;;;3.17;0.88;;;13.70;99.90;;;;;;5002955;28;20304;-67
2021/10/17 09:57:11;;;;;;;3.92;1.10;;;13.60;99.90;;;;;;5005071;28;20037;-67
2021/10/17 09:59:37;;;;;;;4.10;1.23;;;13.60;99.90;;;;;;5003409;28;20243;-67
2021/10/17 10:02:14;;;;;;;2.60;0.98;;;13.60;99.90;;;;;;5003462;28;20025;-67
2021/10/17 10:04:45;;;;;;;2.17;0.80;;;13.70;99.90;;;;;;5003892;28;20384;-67
2021/10/17 10:07:15;;;;;;;3.40;0.82;;;13.70;99.90;;;;;;5003540;28;20494;-68
2021/10/17 10:09:46;;;;;;;3.47;1.15;;;13.80;99.90;;;;;;5002631;28;20064;-67
2021/10/17 10:12:13;;;;;;;2.25;1.02;;;13.80;99.90;;;;;;5003024;28;20321;-67
2021/10/17 10:14:43;;;;;;;3.85;0.98;;;13.80;99.90;;;;;;5003715;28;20095;-67
2021/10/17 10:17:10;;;;;;;3.30;1.00;;;13.90;99.90;;;;;;5004058;28;20127;-68
2021/10/17 10:19:38;;;;;;;4.32;1.05;;;13.80;99.90;;;;;;5005060;28;20526;-67
2021/10/17 10:22:04;;;;;;;3.42;0.90;;;13.80;99.90;;;;;;5003328;28;20036;-67
2021/10/17 10:24:32;;;;;;;2.78;1.10;;;13.70;99.90;;;;;;5003688;28;20296;-67
2021/10/17 10:26:59;;;;;;;5.45;1.75;;;13.70;99.90;;;;;;5003824;28;20021;-67
2021/10/17 10:29:30;;;;;;;4.47;1.88;;;13.60;99.90;;;;;;5003930;28;20062;-68
2021/10/17 10:31:58;;;;;;;4.18;0.93;;;13.60;99.90;;;;;;5003459;28;20647;-68
2021/10/17 10:34:24;;;;;;;4.93;1.27;;;13.60;99.90;;;;;;5003804;28;20133;-67
2021/10/17 10:36:51;;;;;;;5.45;1.42;;;13.50;99.90;;;;;;5003166;28;20046;-68
2021/10/17 10:39:21;;;;;;;4.32;1.45;;;13.50;99.90;;;;;;5003744;28;20249;-67
2021/10/17 10:41:52;;;;;;;3.55;1.17;;;13.60;99.90;;;;;;5003020;28;20189;-68
2021/10/17 10:44:40;;;;;;;4.72;1.00;;;13.60;99.90;;;;;;5002689;28;20223;-67
2021/10/17 10:47:28;;;;;;;5.07;1.42;;;13.60;99.90;;;;;;5003360;28;20053;-68
2021/10/17 10:49:55;;;;;;;3.72;1.02;;;13.90;99.90;;;;;;5004565;28;20036;-67
2021/10/17 10:52:24;;;;;;;3.53;0.85;;;14.10;99.90;;;;;;5004298;28;20349;-68
2021/10/17 10:54:51;;;;;;;6.18;0.90;;;14.30;99.90;;;;;;5002884;28;20097;-68
2021/10/17 10:57:20;;;;;;;1.27;0.90;;;14.30;99.90;;;;;;5003631;28;20025;-67
2021/10/17 11:00:05;;;;;;;2.35;0.90;;;14.30;99.90;;;;;;5002970;28;20108;-67
2021/10/17 11:02:32;;;;;;;2.28;1.08;;;14.20;99.90;;;;;;5003130;28;20185;-67
2021/10/17 11:04:59;;;;;;;3.05;1.63;;;14.00;99.90;;;;;;5003479;28;20034;-66
2021/10/17 11:07:35;;;;;;;3.00;1.02;;;14.00;99.90;;;;;;5003230;28;20037;-67
2021/10/17 11:10:22;;;;;;;4.57;1.10;;;14.00;99.90;;;;;;5003502;28;20100;-69
2021/10/17 11:12:50;;;;;;;5.50;1.10;;;14.00;99.90;;;;;;5002869;28;20026;-67
2021/10/17 11:15:19;;;;;;;1.70;0.70;;;14.00;99.90;;;;;;5003385;28;20145;-68
2021/10/17 11:17:59;;;;;;;3.10;1.05;;;14.00;99.90;;;;;;5003381;28;20030;-68
2021/10/17 11:20:34;;;;;;;4.38;1.30;;;13.90;99.90;;;;;;5003085;28;20582;-67
2021/10/17 11:23:00;;;;;;;3.72;1.30;;;13.80;99.90;;;;;;4992265;28;20042;-68
2021/10/17 11:25:29;;;;;;;3.50;1.13;;;13.70;99.90;;;;;;5003364;28;20049;-67
2021/10/17 11:27:55;;;;;;;2.63;1.02;;;13.60;99.90;;;;;;5002764;28;20061;-68
2021/10/17 11:30:32;;;;;;;2.72;1.60;;;13.50;99.90;;;;;;5003602;28;20238;-68
2021/10/17 11:33:00;;;;;;;3.10;1.60;;;13.30;99.90;;;;;;5002882;28;20029;-68
2021/10/17 11:35:32;;;;;;;3.53;1.75;;;13.30;99.90;;;;;;5002629;28;20038;-68
2021/10/17 11:37:59;;;;;;;4.78;1.25;;;13.20;99.90;;;;;;5002750;28;20030;-68
2021/10/17 11:40:26;;;;;;;4.20;1.45;;;13.20;99.90;;;;;;5002683;28;20085;-68
2021/10/17 11:42:57;;;;;;;3.70;1.20;;;13.10;99.90;;;;;;5002894;28;20097;-68
2021/10/17 11:45:26;;;;;;;5.53;1.33;;;13.10;99.90;;;;;;5002166;28;20038;-68
2021/10/17 11:47:57;;;;;;;4.30;1.63;;;13.10;99.90;;;;;;5002772;28;20026;-68
2021/10/17 11:50:34;;;;;;;5.82;1.73;;;13.10;99.90;;;;;;5002977;28;20041;-67
2021/10/17 11:53:05;;;;;;;4.65;1.80;;;13.00;99.90;;;;;;5002611;28;20340;-67
2021/10/17 11:55:32;;;;;;;6.38;2.33;;;13.10;99.90;;;;;;5002912;28;20092;-68
2021/10/17 11:57:59;;;;;;;6.88;1.40;;;13.00;99.90;;;;;;4991629;28;20337;-68
2021/10/17 12:00:26;;;;;;;5.45;1.85;;;12.90;99.90;;;;;;5002626;28;20240;-67
2021/10/17 12:02:53;;;;;;;4.70;2.22;;;12.90;99.90;;;;;;5002636;28;20037;-68
2021/10/17 12:05:22;;;;;;;4.75;2.97;;;13.00;99.90;;;;;;5002636;28;20093;-67
2021/10/17 12:07:49;;;;;;;4.40;2.60;;;13.10;99.90;;;;;;5002725;28;20102;-68
2021/10/17 12:10:15;;;;;;;3.33;1.75;;;13.30;99.90;;;;;;5003224;28;20030;-67
2021/10/17 12:12:42;;;;;;;4.88;1.35;;;13.40;99.90;;;;;;4991983;28;20041;-67
2021/10/17 12:15:13;;;;;;;5.70;1.48;;;13.40;99.90;;;;;;4991137;28;20036;-68
2021/10/17 12:17:39;;;;;;;3.95;1.13;;;13.60;99.90;;;;;;5003754;28;20026;-68
2021/10/17 12:20:11;;;;;;;3.05;1.10;;;13.70;99.90;;;;;;5005899;28;20388;-68
2021/10/17 12:22:45;;;;;;;4.60;1.38;;;14.00;99.90;;;;;;5005984;28;20232;-67
2021/10/17 12:25:11;;;;;;;4.40;1.73;;;14.00;99.90;;;;;;5006467;28;20320;-67
2021/10/17 12:27:41;;;;;;;4.18;1.52;;;13.90;99.90;;;;;;5005896;28;20060;-67
2021/10/17 12:30:16;;;;;;;4.20;1.45;;;13.80;99.90;;;;;;5006026;28;20045;-68
2021/10/17 12:32:54;;;;;;;11.57;1.63;;;13.90;99.90;;;;;;5005760;28;20344;-68
2021/10/17 12:35:25;;;;;;;2.40;1.13;;;14.00;99.90;;;;;;5004207;28;20251;-68
2021/10/17 12:37:52;;;;;;;4.07;1.60;;;13.90;99.90;;;;;;5005626;28;20324;-67
2021/10/17 12:40:18;;;;;;;4.10;1.83;;;13.70;99.90;;;;;;5005231;28;20053;-67
2021/10/17 12:42:52;;;;;;;2.78;1.02;;;13.70;99.90;;;;;;5005187;28;20100;-68
2021/10/17 12:45:19;;;;;;;2.10;1.02;;;13.60;99.90;;;;;;5004636;28;20033;-68
2021/10/17 12:47:52;;;;;;;4.65;1.10;;;13.60;99.90;;;;;;5005902;28;20054;-68
2021/10/17 12:50:22;;;;;;;7.03;1.30;;;13.60;99.90;;;;;;5005743;28;20080;-68
2021/10/17 12:53:06;;;;;;;4.28;1.08;;;13.50;99.90;;;;;;5005693;28;20045;-67